Sparta, Wisconsin
Current Conditions -  °F | °C
As of 11:15 AM on Sunday 23 Nov 2014 (Local Time) from KCMY Reporting Station
Haze Haze  
Wind Chill: 50°   Ceiling: 1200
Heat Index: 50°   Visibility: 2.5mi
Dew Point: 49°   Wind: 9mph
Humidity: 96%   Direction: 160°SSE
Pressure: 29.52"   Gusts: NA
Location:  43.94°N, 90.82°W
Report Text: KCMY 231715Z AUTO 16008KT 2 1/2SM BR SCT007 BKN012 OVC031 10/10 A2952 RMK AO2 T01010095
Loading
Personal Weather Stations






























Interactive Weather Map New forecast layout! Learn more

10-Day Weather Forecast

Advertisements
Track Severe Weather on mobile